• Join FlightAware (Why Join?)
  • Login
  • US Flag 
08:18AM EDT


 

Airport Tracker/Info


-or-


 

Live Flight TrackerFlight Track Log ✈ ASH2676 ✈ 24-Apr-2013 ✈ KMDT - KCLT

Flight Track Log - Related Links

Times and Time Zones

All times are in EDT time to prevent confusion due to time zone crossing. See the ASH2676 flight status page for this flight to view local times or setup timezone preferences in your user account.

Time Position Orientation Groundspeed Altitude Reporting Facility
EDT Latitude Longitude Course Direction KTS MPH feet Rate Location/Type
03:43PM 40.1261 -76.7189 215° Southwest 156 180 4,200  Level New York Center
03:44PM 40.0611 -76.7269 185° South 208 239 6,900 2,520 Climbing New York Center
03:45PM 39.9961 -76.7322 184° South 234 269 9,300 2,040 Climbing New York Center
03:46PM 39.9250 -76.7369 183° South 262 302 11,000 1,980 Climbing New York Center
03:47PM 39.8522 -76.6903 154° Southeast 296 341 13,300 1,560 Climbing New York Center
03:48PM 40.0289 -76.9124 215° Southwest  Level Estimated
03:48PM 39.7592 -76.6367 156° South 318 366 14,200  Level New York Center
03:49PM 39.6822 -76.7139 218° Southwest 286 329 16,200 2,040 Climbing New York Center
03:49PM 39.6603 -76.7397 222° Southwest 296 341 16,700 2,040 Climbing Washington Center
03:50PM 39.5969 -76.8303 228° Southwest 321 369 18,800 2,040 Climbing Washington Center
03:51PM 39.5333 -76.9233 228° Southwest 342 394 20,800 1,800 Climbing Washington Center
03:52PM 39.4617 -77.0028 221° Southwest 348 400 22,500 1,560 Climbing Washington Center
03:53PM 39.3775 -77.0736 213° Southwest 358 412 24,000 1,500 Climbing Washington Center
03:54PM 39.2889 -77.1442 212° Southwest 365 420 25,500 1,200 Climbing Washington Center
03:55PM 39.1983 -77.2172 212° Southwest 376 433 26,500 1,080 Climbing Washington Center
03:56PM 39.1056 -77.2928 212° Southwest 390 449 27,700 720 Climbing Washington Center
03:57PM 39.0108 -77.3681 212° Southwest 397 457 28,000 120 Climbing Washington Center
03:58PM 38.9181 -77.4406 211° Southwest 397 457 28,000  Level Washington Center
03:59PM 38.8333 -77.5103 213° Southwest 397 457 28,000  Level Washington Center
04:00PM 38.7386 -77.5825 211° Southwest 397 457 28,000  Level Washington Center
04:01PM 38.6433 -77.6597 212° Southwest 397 457 28,000  Level Washington Center
04:02PM 38.5503 -77.7367 213° Southwest 397 457 28,000  Level Washington Center
04:03PM 38.4572 -77.8083 211° Southwest 397 457 28,000  Level Washington Center
04:04PM 38.3619 -77.8850 212° Southwest 397 457 28,000  Level Washington Center
04:06PM 38.2528 -77.9577 211° Southwest  Level FlightAware Approximate
04:06PM 38.1714 -78.0347 211° Southwest 402 463 28,000  Level Washington Center
04:07PM 38.0739 -78.1108 212° Southwest 407 468 28,000  Level Washington Center
04:08PM 37.9781 -78.2025 217° Southwest 407 468 28,000  Level Washington Center
04:09PM 37.9175 -78.3003 232° Southwest 393 452 28,000  Level Washington Center
04:10PM 37.8419 -78.4056 228° Southwest 393 452 28,000  Level Washington Center
04:11PM 37.7708 -78.5078 229° Southwest 398 458 28,000  Level Washington Center
04:12PM 37.6972 -78.6128 228° Southwest 398 458 28,000  Level Washington Center
04:13PM 37.6172 -78.7250 228° Southwest 403 464 28,000  Level Washington Center
04:14PM 37.5436 -78.8292 228° Southwest 398 458 28,000  Level Washington Center
04:15PM 37.4719 -78.9283 228° Southwest 398 458 28,000  Level Washington Center
04:16PM 37.4003 -79.0322 229° Southwest 398 458 28,000  Level Washington Center
04:17PM 37.3283 -79.1336 228° Southwest 398 458 28,000  Level Washington Center
04:18PM 37.2589 -79.2217 225° Southwest 398 458 28,000  Level Washington Center
04:19PM 37.1708 -79.3033 216° Southwest 398 458 28,000  Level Washington Center
04:20PM 37.0767 -79.3822 214° Southwest 398 458 28,000  Level Washington Center
04:21PM 36.9825 -79.4608 214° Southwest 410 472 28,000  Level Washington Center
04:22PM 36.8881 -79.5367 213° Southwest 410 472 28,000  Level Washington Center
04:23PM 36.7831 -79.6247 214° Southwest 410 472 28,000  Level Washington Center
04:24PM 36.6864 -79.7025 213° Southwest 410 472 28,000  Level Washington Center
04:25PM 36.5897 -79.7828 214° Southwest 415 478 28,000  Level Washington Center
04:26PM 36.5000 -79.8522 212° Southwest 418 481 28,000 -1,500 Level Atlanta Center
04:27PM 36.4044 -79.9269 212° Southwest 418 481 25,100 -2,940 Descending Atlanta Center
04:28PM 36.3131 -80.0011 213° Southwest 413 475 22,200 -1,800 Descending Atlanta Center
04:29PM 36.2400 -80.0667 216° Southwest 390 449 21,600 -1,200 Descending Atlanta Center
04:30PM 36.1589 -80.1375 215° Southwest 372 428 19,800 -1,920 Descending Atlanta Center
04:31PM 36.0736 -80.2108 215° Southwest 372 428 17,800 -2,100 Descending Atlanta Center
04:32PM 35.9842 -80.2869 215° Southwest 367 422 15,600 -2,100 Descending Atlanta Center
04:33PM 35.9478 -80.3247 220° Southwest 355 409 14,700 -1,920 Descending Atlanta Center
04:33PM 35.9031 -80.3575 211° Southwest 367 422 13,700 -1,680 Descending Atlanta Center
04:34PM 35.8664 -80.3897 215° Southwest 350 403 13,000 -840 Descending Atlanta Center
04:34PM 35.8297 -80.4197 214° Southwest 361 415 12,900 -840 Descending Atlanta Center
04:35PM 35.7972 -80.4519 219° Southwest 262 302 12,200 -1,440 Descending Atlanta Center
04:35PM 35.7686 -80.4711 209° Southwest 301 346 11,500 -1,200 Descending Atlanta Center
04:36PM 35.7314 -80.4803 191° South 243 280 11,000 -540 Descending Atlanta Center
04:36PM 35.6981 -80.4844 186° South 259 298 11,000 -900 Level Atlanta Center
04:37PM 35.6608 -80.4911 188° South 255 293 10,100 -1,620 Descending Atlanta Center
04:37PM 35.6294 -80.4925 182° South 251 289 9,400 -1,620 Descending Atlanta Center
04:38PM 35.5922 -80.5017 191° South 251 289 8,500 -1,620 Descending Atlanta Center
04:38PM 35.5608 -80.5006 178° South 251 289 7,800 -1,500 Descending Atlanta Center
04:39PM 35.5281 -80.5172 202° Southwest 245 282 7,000 -1,200 Descending Atlanta Center
04:39PM 35.5058 -80.5436 224° Southwest 244 281 6,600 -1,020 Descending Atlanta Center
04:40PM 35.4775 -80.5806 227° Southwest 241 277 6,000 -600 Descending Atlanta Center
04:40PM 35.4614 -80.6017 227° Southwest 233 268 6,000  Level Atlanta Center
04:41PM 35.4356 -80.6411 231° Southwest 230 265 6,000  Level Atlanta Center
04:41PM 35.4211 -80.6544 217° Southwest 233 268 6,000  Level Atlanta Center
04:42PM 35.3953 -80.6936 231° Southwest 208 239 6,000 -240 Level Atlanta Center
04:42PM 35.3850 -80.7067 226° Southwest 220 253 5,800 -1,140 Descending Atlanta Center
04:42PM 35.3736 -80.7225 229° Southwest 202 232 5,300 -1,680 Descending FAA TRACON SMA TRACON (SMA)
04:43PM 35.3622 -80.7386 229° Southwest 202 232 4,800 -1,500 Descending FAA TRACON SMA TRACON (SMA)
04:43PM 35.3481 -80.7586 229° Southwest 202 232 4,300 -1,080 Descending FAA TRACON SMA TRACON (SMA)
04:43PM 35.3369 -80.7733 227° Southwest 202 232 4,100 -960 Descending FAA TRACON SMA TRACON (SMA)
04:44PM 35.3250 -80.7900 229° Southwest 200 230 3,700 -1,080 Descending FAA TRACON SMA TRACON (SMA)
04:44PM 35.3119 -80.8081 228° Southwest 190 219 3,400 -900 Descending FAA TRACON SMA TRACON (SMA)
04:44PM 35.3033 -80.8197 228° Southwest 158 182 3,100 -900 Descending FAA TRACON SMA TRACON (SMA)
04:45PM 35.2944 -80.8322 229° Southwest 160 184 2,800 -900 Descending FAA TRACON SMA TRACON (SMA)
04:45PM 35.2833 -80.8478 229° Southwest 157 181 2,500 -780 Descending FAA TRACON SMA TRACON (SMA)
04:45PM 35.2744 -80.8600 228° Southwest 155 178 2,300 -600 Descending FAA TRACON SMA TRACON (SMA)
04:46PM 35.2664 -80.8708 228° Southwest 146 168 2,100 -780 Descending FAA TRACON SMA TRACON (SMA)
04:46PM 35.2567 -80.8828 225° Southwest 137 158 1,800 -780 Descending FAA TRACON SMA TRACON (SMA)
04:46PM 35.2500 -80.8933 232° Southwest 132 152 1,600 -600 Descending FAA TRACON SMA TRACON (SMA)
04:47PM 35.2425 -80.9039 229° Southwest 131 151 1,400 -780 Descending FAA TRACON SMA TRACON (SMA)
04:47PM 35.2331 -80.9167 228° Southwest 131 151 1,100 -780 Descending FAA TRACON SMA TRACON (SMA)
04:47PM 35.2261 -80.9264 229° Southwest 129 148 900 -480 Descending FAA TRACON SMA TRACON (SMA)
04:48PM 35.2242 -80.9289 226° Southwest 127 146 800 -300 Descending FAA TRACON SMA TRACON (SMA)